Terminal Aerodrome Forecast
Issued by NWS Charleston, WV

Current Version | Previous Version | Graphics & Text | Print | Product List | Glossary On
Versions: 1 2 3 4 5 6 7 8 9 10 11 12 13 14 15 16 17 18 19 20 21 22 23
000
FTUS41 KRLX 160500
TAFBKW
TAF
KBKW 160540Z 1606/1706 14009G16KT P6SM BKN200
     FM160900 17010G16KT 6SM -SHRA OVC025
     FM161500 19010G15KT P6SM OVC017
     FM161700 24009KT P6SM OVC013
     FM162300 27011G17KT P6SM OVC012
     FM170400 28012G20KT P6SM OVC012=

USA.gov is the U.S. government's official web portal to all federal, state and local government web resources and services.